Time;durP1;ratioP1;P1;durP2;ratioP2;P2;SDS_P1;SDS_P2;PMS_P1;PMS_P2;Temp;Humidity;BMP_temperature;BMP_pressure;BME280_temperature;BME280_humidity;BME280_pressure;Samples;Min_cycle;Max_cycle;Signal;HPM_P1;HPM_P2
2023/04/09 06:45:50;;;;;;;20.03;11.40;;;;;;;10.18;63.60;101427.22;5042492;28;20229;-65
2023/04/09 06:48:19;;;;;;;20.67;12.33;;;;;;;10.24;63.29;101439.13;5054861;28;20202;-65
2023/04/09 06:51:14;;;;;;;18.87;11.47;;;;;;;10.25;63.67;101446.13;5055136;28;20203;-67
2023/04/09 06:54:06;;;;;;;18.17;11.20;;;;;;;10.34;63.48;101448.03;5017205;28;20215;-65
2023/04/09 06:56:50;;;;;;;19.67;11.43;;;;;;;10.41;62.99;101441.28;5038101;28;20232;-66
2023/04/09 06:59:19;;;;;;;18.67;11.07;;;;;;;10.46;62.59;101434.66;5034226;28;20632;-65
2023/04/09 07:01:55;;;;;;;20.97;12.53;;;;;;;10.54;62.42;101434.03;5035580;28;20298;-65
2023/04/09 07:04:46;;;;;;;19.03;11.00;;;;;;;10.59;61.95;101438.94;5037857;28;20300;-66
2023/04/09 07:07:19;;;;;;;18.80;11.73;;;;;;;10.65;61.69;101430.47;5038893;28;20238;-65
2023/04/09 07:09:56;;;;;;;19.33;12.33;;;;;;;10.74;61.49;101430.56;5036815;28;20674;-65
2023/04/09 07:12:31;;;;;;;18.73;12.40;;;;;;;10.82;61.30;101428.13;5037743;28;20679;-65
2023/04/09 07:18:37;;;;;;;17.70;10.53;;;;;;;11.03;60.72;101429.97;4975925;28;20225;-65
2023/04/09 07:21:45;;;;;;;18.97;11.83;;;;;;;11.11;60.57;101428.38;4982535;28;20210;-65
2023/04/09 07:24:37;;;;;;;21.60;12.03;;;;;;;11.20;60.36;101432.06;4970298;28;20576;-66
2023/04/09 07:27:37;;;;;;;21.13;13.13;;;;;;;11.26;59.96;101427.06;5007076;28;20324;-66
2023/04/09 07:30:14;;;;;;;21.13;11.50;;;;;;;11.34;59.76;101425.63;5030118;28;20205;-67
2023/04/09 07:32:52;;;;;;;20.27;12.77;;;;;;;11.44;59.64;101434.47;5035086;28;20214;-65
2023/04/09 07:35:45;;;;;;;21.10;13.60;;;;;;;11.53;59.67;101433.69;5037988;28;20240;-65
2023/04/09 07:38:35;;;;;;;21.97;13.70;;;;;;;11.69;59.08;101434.91;5034381;28;20751;-66
2023/04/09 07:41:21;;;;;;;22.87;14.17;;;;;;;11.88;58.64;101428.00;5034398;28;20222;-67
2023/04/09 07:43:59;;;;;;;22.70;13.83;;;;;;;12.10;58.15;101434.97;5034567;28;20767;-66
2023/04/09 07:46:27;;;;;;;21.07;13.27;;;;;;;12.38;57.51;101434.22;5032583;28;21277;-65
2023/04/09 07:48:58;;;;;;;26.03;14.13;;;;;;;12.62;57.00;101437.34;5035925;28;20240;-65
2023/04/09 07:51:31;;;;;;;23.53;14.57;;;;;;;12.88;56.03;101435.00;5037946;28;20215;-65
2023/04/09 07:54:05;;;;;;;23.93;15.10;;;;;;;13.10;54.85;101440.06;5033790;28;20240;-65
2023/04/09 07:56:40;;;;;;;21.27;13.33;;;;;;;13.29;54.59;101439.19;5039595;28;20236;-66
2023/04/09 07:59:31;;;;;;;21.33;13.97;;;;;;;13.52;53.66;101447.72;5022439;28;20217;-65
2023/04/09 08:01:59;;;;;;;23.23;13.43;;;;;;;13.59;54.05;101440.84;5035138;28;20211;-66
2023/04/09 08:04:28;;;;;;;21.73;13.93;;;;;;;13.59;53.24;101446.16;5034883;28;20586;-65
2023/04/09 08:06:57;;;;;;;24.27;15.60;;;;;;;13.57;53.63;101453.47;5036291;28;20260;-65
2023/04/09 08:09:25;;;;;;;20.37;12.83;;;;;;;13.42;53.81;101449.56;5035947;28;20211;-64
2023/04/09 08:11:56;;;;;;;24.13;15.00;;;;;;;13.35;53.86;101454.63;5034265;28;20579;-66
2023/04/09 08:14:24;;;;;;;23.27;13.97;;;;;;;13.35;53.59;101454.63;5041444;28;20210;-66
2023/04/09 08:16:52;;;;;;;24.13;15.00;;;;;;;13.43;53.92;101456.59;5041065;28;20236;-65
2023/04/09 08:19:23;;;;;;;23.70;14.73;;;;;;;13.51;53.74;101462.03;5041342;28;20210;-65
2023/04/09 08:21:51;;;;;;;25.43;14.77;;;;;;;13.71;53.15;101450.34;5042688;28;20205;-66
2023/04/09 08:24:21;;;;;;;22.77;14.20;;;;;;;13.87;53.18;101455.06;5038044;28;20261;-66
2023/04/09 08:26:50;;;;;;;21.53;14.23;;;;;;;13.99;53.33;101453.03;5039335;28;20289;-65
2023/04/09 08:29:18;;;;;;;23.33;13.80;;;;;;;14.02;53.25;101447.44;5038232;28;20212;-65
2023/04/09 08:31:46;;;;;;;24.80;14.53;;;;;;;14.09;52.58;101454.69;5039301;28;20215;-65
2023/04/09 08:34:16;;;;;;;22.30;13.93;;;;;;;14.16;52.02;101455.78;5040302;28;20283;-65
2023/04/09 08:36:46;;;;;;;19.27;13.90;;;;;;;14.23;51.86;101454.22;5039589;28;20239;-66
2023/04/09 08:39:19;;;;;;;21.67;14.47;;;;;;;14.32;51.81;101452.50;5040711;28;20216;-65
2023/04/09 08:41:53;;;;;;;20.73;13.60;;;;;;;14.42;51.60;101461.31;5040159;28;20204;-66
2023/04/09 08:44:25;;;;;;;20.33;14.13;;;;;;;14.58;51.36;101448.16;5041566;28;20208;-66
2023/04/09 08:46:57;;;;;;;21.87;13.90;;;;;;;14.68;50.58;101450.75;5042476;28;20254;-66
2023/04/09 08:49:31;;;;;;;20.93;13.70;;;;;;;14.89;50.49;101453.97;5037099;28;20204;-66
2023/04/09 08:52:02;;;;;;;22.00;14.10;;;;;;;15.03;49.76;101444.59;5038072;28;20234;-65
2023/04/09 08:54:31;;;;;;;21.10;15.07;;;;;;;15.11;49.58;101444.66;5037344;28;20211;-66
2023/04/09 08:57:40;;;;;;;22.30;14.97;;;;;;;15.26;48.89;101451.13;5039235;28;20690;-66
2023/04/09 09:00:09;;;;;;;20.50;13.60;;;;;;;15.48;48.59;101451.63;5041868;28;20222;-67
2023/04/09 09:02:38;;;;;;;23.67;15.33;;;;;;;15.58;48.22;101453.22;5039543;28;20204;-66
2023/04/09 09:05:08;;;;;;;19.03;14.20;;;;;;;15.68;47.42;101453.97;5038708;28;20297;-66
2023/04/09 09:07:53;;;;;;;19.33;14.17;;;;;;;15.83;47.04;101462.28;5041123;28;20211;-65
2023/04/09 09:10:21;;;;;;;19.77;13.27;;;;;;;16.02;46.90;101458.50;5039225;28;20205;-66
2023/04/09 09:12:51;;;;;;;20.23;12.87;;;;;;;16.28;46.62;101464.63;5041084;28;20652;-66
2023/04/09 09:15:27;;;;;;;19.23;13.00;;;;;;;16.62;45.33;101464.66;5040807;28;20232;-66
2023/04/09 09:17:57;;;;;;;19.80;14.17;;;;;;;16.88;45.05;101464.53;5040002;28;20293;-66
2023/04/09 09:21:16;;;;;;;16.93;11.77;;;;;;;17.21;44.27;101462.72;5040247;28;20628;-67
2023/04/09 09:23:47;;;;;;;17.40;12.10;;;;;;;17.77;43.00;101461.00;5007811;28;20262;-66
2023/04/09 09:26:17;;;;;;;17.13;12.20;;;;;;;17.84;42.58;101464.69;5035303;28;20216;-65
2023/04/09 09:28:48;;;;;;;17.40;12.90;;;;;;;17.65;42.36;101466.75;5036130;28;20228;-66
2023/04/09 09:31:18;;;;;;;17.87;12.57;;;;;;;17.47;43.27;101463.38;5038290;28;20216;-66
2023/04/09 09:33:47;;;;;;;15.60;11.20;;;;;;;17.25;42.89;101464.03;5038365;28;20807;-65
2023/04/09 09:36:32;;;;;;;16.67;11.77;;;;;;;17.15;42.03;101463.41;5036679;28;20664;-66
2023/04/09 09:39:02;;;;;;;15.90;11.30;;;;;;;16.95;42.27;101456.66;5038916;28;20271;-66
2023/04/09 09:41:32;;;;;;;16.20;11.47;;;;;;;17.04;42.55;101461.03;5033754;28;20213;-66
2023/04/09 09:44:05;;;;;;;11.57;8.83;;;;;;;17.37;41.50;101449.31;5036856;28;20304;-65
2023/04/09 09:46:37;;;;;;;11.90;8.70;;;;;;;17.67;41.20;101451.31;5038968;28;20231;-66
2023/04/09 09:49:05;;;;;;;11.37;9.13;;;;;;;18.01;40.03;101463.66;5037065;28;20203;-66
2023/04/09 09:51:39;;;;;;;12.13;9.20;;;;;;;18.19;39.70;101453.50;5036184;28;20275;-66
2023/04/09 09:54:09;;;;;;;14.10;10.30;;;;;;;18.14;39.95;101450.50;5035532;28;20205;-66
2023/04/09 09:56:42;;;;;;;14.30;10.60;;;;;;;18.06;40.50;101447.84;5034596;28;20208;-67
2023/04/09 09:59:16;;;;;;;13.47;10.23;;;;;;;18.16;40.31;101448.47;5038173;28;20714;-67
2023/04/09 10:01:47;;;;;;;12.60;10.10;;;;;;;18.43;39.48;101442.66;5034342;28;20199;-66
2023/04/09 10:04:18;;;;;;;16.07;10.33;;;;;;;18.35;39.07;101431.97;5035106;28;20208;-67
2023/04/09 10:06:48;;;;;;;13.07;9.50;;;;;;;18.15;39.98;101433.38;5035120;28;20756;-67
2023/04/09 10:09:21;;;;;;;14.77;10.90;;;;;;;18.10;40.44;101438.44;5037606;28;20673;-66
2023/04/09 10:11:49;;;;;;;13.50;9.97;;;;;;;18.04;40.46;101431.06;5036586;28;20222;-66
2023/04/09 10:14:22;;;;;;;12.97;9.80;;;;;;;19.33;39.81;101420.53;5036953;28;20208;-65
2023/04/09 10:16:53;;;;;;;14.53;10.73;;;;;;;23.07;33.81;101421.38;5036941;28;20611;-65
2023/04/09 10:19:35;;;;;;;13.07;9.63;;;;;;;24.22;30.61;101418.94;5033575;28;20212;-68
2023/04/09 10:22:09;;;;;;;12.47;9.40;;;;;;;27.15;26.84;101412.91;5031619;28;20680;-67
2023/04/09 10:24:42;;;;;;;12.70;9.40;;;;;;;29.98;24.03;101411.25;5035370;28;20316;-66
2023/04/09 10:27:11;;;;;;;10.10;8.25;;;;;;;30.51;23.70;101404.22;5033462;28;20265;-66
2023/04/09 10:29:45;;;;;;;11.48;10.02;;;;;;;29.14;23.54;101399.56;5032974;28;20208;-67
2023/04/09 10:32:19;;;;;;;10.95;9.10;;;;;;;26.84;26.42;101405.81;5034698;28;20253;-66
2023/04/09 10:34:49;;;;;;;11.65;9.55;;;;;;;24.46;28.71;101416.53;5035113;28;20261;-66
2023/04/09 10:37:22;;;;;;;11.40;9.07;;;;;;;22.46;31.23;101413.34;5034584;28;20238;-67
2023/04/09 10:39:51;;;;;;;12.77;10.85;;;;;;;20.97;33.67;101405.72;5037720;28;20216;-66
2023/04/09 10:42:32;;;;;;;10.85;9.52;;;;;;;19.95;35.33;101407.66;5035819;28;20247;-66
2023/04/09 10:45:08;;;;;;;12.80;10.05;;;;;;;19.38;36.65;101410.91;5037085;28;20236;-68
2023/04/09 10:47:41;;;;;;;11.83;9.37;;;;;;;18.91;37.72;101408.44;5033589;28;20204;-66
2023/04/09 13:30:00;;;;;;;6.60;4.93;;;;;;;18.27;32.67;101316.56;5037997;28;20781;-70
2023/04/09 13:32:29;;;;;;;8.60;6.00;;;;;;;18.16;32.70;101300.00;5044370;28;20209;-73
2023/04/09 13:35:01;;;;;;;6.03;4.80;;;;;;;18.00;34.30;101303.63;5040295;28;20204;-71
2023/04/09 13:37:37;;;;;;;12.00;4.57;;;;;;;18.06;33.58;101297.53;5035415;28;20252;-71
2023/04/09 16:45:59;;;;;;;5.27;3.53;;;;;;;16.75;33.75;101183.78;5026248;23;20254;-71
2023/04/09 16:48:28;;;;;;;7.30;3.57;;;;;;;16.73;33.28;101191.13;4970440;28;20199;-69
2023/04/09 16:50:59;;;;;;;7.77;5.60;;;;;;;16.69;33.67;101187.16;4967757;28;20212;-70
2023/04/09 16:53:31;;;;;;;5.20;3.57;;;;;;;16.58;33.37;101190.13;4956278;28;20274;-70
2023/04/09 16:56:39;;;;;;;;;;;;;;;;;;;;;
2023/04/09 16:59:35;;;;;;;4.50;3.07;;;;;;;16.45;33.57;101190.63;4948631;28;20386;-70
2023/04/09 17:02:20;;;;;;;4.63;2.90;;;;;;;16.39;33.69;101190.47;4966335;28;20211;-70
2023/04/09 17:04:51;;;;;;;4.27;2.70;;;;;;;16.36;34.44;101188.16;4969069;28;20199;-70
2023/04/09 17:07:27;;;;;;;6.00;3.00;;;;;;;16.43;33.52;101191.84;4966765;28;20311;-71
2023/04/09 17:10:05;;;;;;;4.10;3.00;;;;;;;16.33;33.84;101188.50;4964546;29;20222;-70
2023/04/09 17:12:54;;;;;;;3.97;2.57;;;;;;;16.26;33.72;101185.66;4965372;28;20235;-69
2023/04/09 17:15:36;;;;;;;3.70;2.50;;;;;;;16.19;34.02;101193.50;4965002;29;20204;-70
2023/04/09 17:18:28;;;;;;;6.33;2.93;;;;;;;16.24;33.94;101194.84;4966998;28;20224;-72
2023/04/09 17:21:13;;;;;;;4.00;2.60;;;;;;;16.13;34.01;101194.16;4970258;28;20208;-70
2023/04/09 17:23:51;;;;;;;3.83;2.33;;;;;;;16.12;34.46;101197.00;4956841;28;20768;-70
2023/04/09 17:26:32;;;;;;;5.73;3.10;;;;;;;16.15;34.60;101194.84;4956414;28;20211;-71
2023/04/09 17:31:57;;;;;;;5.77;3.13;;;;;;;16.12;35.12;101205.03;4948250;28;20207;-69
2023/04/09 17:34:28;;;;;;;4.60;3.10;;;;;;;16.07;35.10;101205.53;4947622;28;20956;-73
2023/04/09 17:37:37;;;;;;;4.40;2.70;;;;;;;16.04;35.01;101203.19;4948594;28;20215;-69
2023/04/09 17:40:11;;;;;;;3.83;2.70;;;;;;;16.00;34.90;101198.34;4949386;28;20242;-70
2023/04/09 17:42:40;;;;;;;4.23;2.87;;;;;;;15.95;34.70;101206.84;4962876;28;20239;-72
2023/04/09 17:45:16;;;;;;;5.03;3.00;;;;;;;15.89;35.92;101207.53;4965782;28;20298;-71
2023/04/09 17:48:02;;;;;;;;;;;;;;;;;;;;;
2023/04/09 17:50:38;;;;;;;3.37;2.67;;;;;;;15.75;35.90;101206.31;4940095;28;20204;-70
2023/04/09 18:25:32;;;;;;;6.80;4.07;;;;;;;14.94;42.11;101226.50;4920504;29;20212;-70
2023/04/09 18:28:44;;;;;;;6.63;4.30;;;;;;;14.91;43.35;101227.66;4949364;28;20206;-74
2023/04/09 18:31:19;;;;;;;7.37;5.20;;;;;;;14.89;44.41;101234.16;4949585;28;20688;-71
2023/04/09 18:33:51;;;;;;;8.93;4.63;;;;;;;14.84;43.81;101236.47;4955576;28;20235;-69
2023/04/09 18:36:22;;;;;;;8.20;5.30;;;;;;;14.84;43.48;101237.31;4962336;28;20211;-70
2023/04/09 18:38:52;;;;;;;8.03;5.20;;;;;;;14.80;43.03;101232.41;4952236;28;20254;-70
2023/04/09 18:41:25;;;;;;;7.80;5.13;;;;;;;14.77;43.00;101241.59;4955349;28;20305;-70
2023/04/09 18:44:00;;;;;;;8.03;5.20;;;;;;;14.63;42.91;101234.97;4955564;28;20211;-72
2023/04/09 18:46:29;;;;;;;10.03;6.57;;;;;;;14.60;43.44;101245.16;4963794;28;20237;-68
2023/04/09 18:49:50;;;;;;;10.60;6.43;;;;;;;14.55;43.92;101234.91;4917639;29;20311;-72
2023/04/09 18:52:22;;;;;;;10.80;5.87;;;;;;;14.51;43.31;101236.22;4917549;29;20873;-72
2023/04/09 18:55:04;;;;;;;9.27;5.80;;;;;;;14.48;43.01;101239.22;4915333;29;20246;-69
2023/04/09 18:57:44;;;;;;;10.07;6.43;;;;;;;14.51;44.77;101243.41;4922779;29;20310;-70
2023/04/09 19:00:15;;;;;;;10.33;6.33;;;;;;;14.53;44.74;101238.72;4922345;29;20244;-68
2023/04/09 19:03:01;;;;;;;9.17;6.23;;;;;;;14.49;44.65;101243.56;4919639;29;20242;-70
2023/04/09 19:05:31;;;;;;;10.20;6.57;;;;;;;14.40;44.95;101236.47;4917139;29;20221;-68
2023/04/09 19:08:00;;;;;;;10.87;7.03;;;;;;;14.37;45.62;101244.75;4917009;29;20238;-68
2023/04/09 19:10:46;;;;;;;;;;;;;;;;;;;;;
2023/04/09 19:13:28;;;;;;;9.67;6.17;;;;;;;14.35;44.20;101251.22;4913885;29;20215;-69
2023/04/09 19:16:09;;;;;;;12.40;5.70;;;;;;;14.32;44.60;101244.38;4912281;29;20394;-67
2023/04/09 19:19:19;;;;;;;;;;;;;;;;;;;;;
2023/04/09 19:26:10;;;;;;;10.70;5.47;;;;;;;14.17;44.61;101252.06;4873498;29;20226;-71
2023/04/09 19:28:42;;;;;;;9.87;6.17;;;;;;;14.13;44.93;101248.03;4917941;29;20267;-68
2023/04/09 19:31:20;;;;;;;13.53;7.93;;;;;;;14.13;44.71;101250.72;4919627;29;20240;-68
2023/04/09 19:33:55;;;;;;;13.13;9.23;;;;;;;14.13;44.85;101250.72;4919309;29;20211;-68
2023/04/09 19:36:32;;;;;;;15.87;11.00;;;;;;;14.11;45.09;101254.50;4922059;29;20781;-68
2023/04/09 19:39:09;;;;;;;17.63;11.37;;;;;;;14.06;45.21;101246.13;4909686;29;20738;-71
2023/04/09 19:45:13;;;;;;;16.17;10.97;;;;;;;13.76;46.38;101242.81;4905296;29;20210;-71
2023/04/09 19:47:55;;;;;;;17.37;11.27;;;;;;;13.71;47.01;101249.59;4910697;29;20231;-69
2023/04/09 19:53:41;;;;;;;14.57;9.70;;;;;;;13.77;46.00;101247.16;4969114;28;20241;-70
2023/04/09 19:56:24;;;;;;;16.53;10.73;;;;;;;13.80;46.85;101248.72;4968671;28;20267;-69
2023/04/09 19:58:56;;;;;;;14.87;9.77;;;;;;;13.75;46.46;101254.47;5192938;22;20247;-69
2023/04/09 20:04:08;;;;;;;16.50;10.83;;;;;;;13.71;46.73;101255.78;5348307;23;20255;-68
2023/04/09 20:06:38;;;;;;;16.57;11.13;;;;;;;13.69;47.18;101246.25;4957151;28;20211;-67
2023/04/09 20:17:57;;;;;;;12.77;9.30;;;;;;;13.45;47.96;101249.47;4955703;28;21139;-70
2023/04/09 20:20:40;;;;;;;13.97;8.93;;;;;;;13.38;48.16;101243.88;4947556;28;20731;-70
2023/04/09 20:23:11;;;;;;;17.40;9.33;;;;;;;13.37;47.90;101234.19;4944262;28;20228;-70
2023/04/09 20:25:42;;;;;;;14.93;9.20;;;;;;;13.36;47.97;101243.19;4951992;28;20295;-70
2023/04/09 20:28:14;;;;;;;13.70;9.13;;;;;;;13.36;47.61;101242.34;5001028;23;20262;-69
2023/04/09 20:31:07;;;;;;;14.97;8.30;;;;;;;13.33;46.90;101242.63;4970655;28;20204;-71
2023/04/09 20:37:05;;;;;;;11.47;7.67;;;;;;;13.32;47.18;101238.28;4951059;28;20228;-71
2023/04/09 20:39:37;;;;;;;10.60;7.17;;;;;;;13.34;47.10;101239.00;4946609;28;20701;-69
2023/04/09 20:42:10;;;;;;;9.20;6.47;;;;;;;13.36;46.91;101245.03;4948653;28;20218;-69
